Time;durP1;ratioP1;P1;durP2;ratioP2;P2;SDS_P1;SDS_P2;PMS_P1;PMS_P2;Temp;Humidity;BMP_temperature;BMP_pressure;BME280_temperature;BME280_humidity;BME280_pressure;Samples;Min_cycle;Max_cycle;Signal;HPM_P1;HPM_P2
2022/01/11 00:01:45;;;;;;;;;31.25;22.50;;;;;7.65;100.00;102594.63;5016758;28;46049;-77
2022/01/11 00:04:12;;;;;;;;;32.00;22.25;;;;;7.70;100.00;102594.25;5017880;28;45797;-77
2022/01/11 00:06:45;;;;;;;;;24.75;20.25;;;;;7.71;100.00;102595.16;5037350;28;45241;-77
2022/01/11 00:11:49;;;;;;;;;23.50;20.25;;;;;7.67;100.00;102599.16;5036783;28;45327;-77
2022/01/11 00:14:15;;;;;;;;;22.75;20.50;;;;;7.66;100.00;102599.03;5036820;28;45979;-77
2022/01/11 00:16:40;;;;;;;;;24.50;23.50;;;;;7.67;100.00;102600.81;5037243;28;45414;-77
2022/01/11 00:19:06;;;;;;;;;25.50;23.50;;;;;7.65;100.00;102599.78;5037285;28;45399;-77
2022/01/11 00:21:44;;;;;;;;;25.00;20.75;;;;;7.63;100.00;102602.22;5036489;28;45457;-77
2022/01/11 00:24:29;;;;;;;;;22.00;20.25;;;;;7.61;100.00;102602.88;5036524;28;45243;-76
2022/01/11 00:27:09;;;;;;;;;24.75;23.75;;;;;7.63;100.00;102601.34;5036447;28;45274;-77
2022/01/11 00:29:39;;;;;;;;;25.50;23.75;;;;;7.64;100.00;102603.13;5036555;28;45553;-77
2022/01/11 00:32:10;;;;;;;;;26.75;20.75;;;;;7.65;100.00;102604.94;5018440;28;45887;-77
2022/01/11 00:34:50;;;;;;;;;22.50;20.25;;;;;7.64;100.00;102608.28;5036223;28;45960;-77
2022/01/11 00:37:17;;;;;;;;;22.25;21.25;;;;;7.62;100.00;102607.25;5018667;28;45379;-76
2022/01/11 00:39:45;;;;;;;;;28.75;24.00;;;;;7.61;100.00;102605.44;5037143;28;45539;-77
2022/01/11 00:42:13;;;;;;;;;24.00;20.50;;;;;7.60;100.00;102604.56;5036699;28;46244;-77
2022/01/11 00:44:39;;;;;;;;;27.75;20.75;;;;;7.56;100.00;102600.78;5036774;28;45516;-77
2022/01/11 00:47:05;;;;;;;;;32.75;23.00;;;;;7.53;100.00;102605.69;5018606;28;45549;-77
2022/01/11 00:49:33;;;;;;;;;27.75;23.75;;;;;7.53;100.00;102599.63;5036592;28;45243;-77
2022/01/11 00:51:59;;;;;;;;;34.50;24.00;;;;;7.54;100.00;102606.59;5036149;28;45960;-78
2022/01/11 00:54:25;;;;;;;;;31.00;25.75;;;;;7.56;100.00;102605.06;5036231;28;45358;-78
2022/01/11 00:56:51;;;;;;;;;24.75;22.25;;;;;7.56;100.00;102612.78;5035886;28;45356;-78
2022/01/11 00:59:16;;;;;;;;;27.25;23.00;;;;;7.55;100.00;102613.56;5036517;28;45478;-77
2022/01/11 01:01:42;;;;;;;;;20.25;19.00;;;;;7.53;100.00;102618.59;5036183;28;46102;-78
2022/01/11 01:04:09;;;;;;;;;29.75;24.25;;;;;7.52;100.00;102605.56;5038490;28;45383;-77
2022/01/11 01:06:37;;;;;;;;;31.50;21.75;;;;;7.51;100.00;102614.97;5039938;28;45320;-77
2022/01/11 01:09:03;;;;;;;;;25.50;21.25;;;;;7.50;100.00;102617.44;5041019;28;45353;-78
2022/01/11 01:11:29;;;;;;;;;28.25;23.25;;;;;7.49;100.00;102619.09;5040000;28;46003;-76
2022/01/11 01:13:54;;;;;;;;;27.75;25.75;;;;;7.48;100.00;102609.53;5039132;28;45744;-76
2022/01/11 01:16:21;;;;;;;;;23.50;20.00;;;;;7.49;100.00;102620.78;5039692;28;45401;-77
2022/01/11 01:18:46;;;;;;;;;26.00;21.75;;;;;7.51;100.00;102629.50;5039845;28;45355;-77
2022/01/11 01:21:12;;;;;;;;;22.75;20.25;;;;;7.48;100.00;102630.16;5039348;28;45879;-76
2022/01/11 01:23:38;;;;;;;;;26.50;21.00;;;;;7.53;100.00;102640.88;5020930;28;45366;-77
2022/01/11 01:26:05;;;;;;;;;27.25;17.75;;;;;7.54;100.00;102630.72;5038539;28;45262;-77
2022/01/11 01:28:31;;;;;;;;;27.25;23.75;;;;;7.56;100.00;102628.25;5039132;28;45235;-76
2022/01/11 01:31:01;;;;;;;;;29.75;25.50;;;;;7.56;100.00;102620.53;5039042;28;45315;-77
2022/01/11 01:33:28;;;;;;;;;22.50;21.00;;;;;7.55;100.00;102629.94;5039199;28;46006;-77
2022/01/11 01:35:59;;;;;;;;;23.00;21.00;;;;;7.51;100.00;102626.94;5039278;28;45396;-76
2022/01/11 01:38:25;;;;;;;;;24.50;18.75;;;;;7.50;100.00;102632.88;5039624;28;45362;-77
2022/01/11 01:40:55;;;;;;;;;27.50;19.75;;;;;7.48;100.00;102635.31;5038984;28;46215;-76
2022/01/11 01:43:21;;;;;;;;;23.50;18.25;;;;;7.47;100.00;102633.50;5039210;28;45804;-77
2022/01/11 01:45:49;;;;;;;;;21.50;16.00;;;;;7.43;100.00;102634.03;5039124;28;45292;-77
2022/01/11 01:48:16;;;;;;;;;27.00;21.75;;;;;7.39;100.00;102640.59;5039048;28;45422;-77
2022/01/11 01:50:42;;;;;;;;;24.00;21.50;;;;;7.36;100.00;102636.81;5021486;28;47853;-77
2022/01/11 01:53:12;;;;;;;;;22.25;21.25;;;;;7.31;100.00;102641.56;5039059;28;45396;-78
2022/01/11 01:55:40;;;;;;;;;26.50;22.75;;;;;7.30;100.00;102652.63;5039089;28;45221;-78
2022/01/11 01:58:07;;;;;;;;;21.25;18.25;;;;;7.30;100.00;102651.75;5026151;28;45430;-77
2022/01/11 02:00:39;;;;;;;;;29.75;26.00;;;;;7.30;100.00;102659.47;5021190;28;45574;-78
2022/01/11 02:03:10;;;;;;;;;31.75;27.25;;;;;7.32;100.00;102658.84;5037347;28;45748;-78
2022/01/11 02:05:35;;;;;;;;;25.50;21.00;;;;;7.34;100.00;102662.47;5024194;28;45403;-78
2022/01/11 02:08:02;;;;;;;;;27.25;25.75;;;;;7.37;100.00;102660.16;5019888;28;45451;-78
2022/01/11 02:10:28;;;;;;;;;36.75;26.00;;;;;7.38;100.00;102661.97;5018690;28;46271;-79
2022/01/11 02:12:53;;;;;;;;;29.50;24.50;;;;;7.36;100.00;102667.75;5018795;28;45348;-79
2022/01/11 02:15:19;;;;;;;;;37.50;29.75;;;;;7.37;100.00;102670.47;5018677;28;45409;-79
2022/01/11 02:17:45;;;;;;;;;25.50;24.00;;;;;7.38;100.00;102661.97;5019358;28;45315;-79
2022/01/11 02:20:14;;;;;;;;;29.00;23.50;;;;;7.39;100.00;102655.13;5018556;28;45461;-78
2022/01/11 02:22:40;;;;;;;;;30.25;28.75;;;;;7.37;100.00;102656.66;5036831;28;45826;-79
2022/01/11 02:25:06;;;;;;;;;26.25;25.00;;;;;7.35;100.00;102659.13;5020646;28;45382;-79
2022/01/11 02:27:32;;;;;;;;;29.75;23.50;;;;;7.35;100.00;102663.34;5020771;28;45316;-79
2022/01/11 02:29:59;;;;;;;;;26.50;23.00;;;;;7.36;100.00;102671.25;5038116;28;45346;-79
2022/01/11 02:32:25;;;;;;;;;28.00;22.75;;;;;7.35;100.00;102672.00;5039011;28;45381;-79
2022/01/11 02:34:50;;;;;;;;;31.50;23.50;;;;;7.37;100.00;102685.94;5040598;28;45267;-79
2022/01/11 02:37:16;;;;;;;;;35.00;28.00;;;;;7.39;100.00;102670.59;5039317;28;45307;-79
2022/01/11 02:39:45;;;;;;;;;32.50;25.25;;;;;7.38;100.00;102672.28;5038328;28;46265;-79
2022/01/11 02:42:10;;;;;;;;;35.75;31.00;;;;;7.38;100.00;102672.28;5037800;28;45888;-79
2022/01/11 02:44:36;;;;;;;;;35.75;29.25;;;;;7.40;100.00;102665.56;5038458;28;45341;-79
2022/01/11 02:47:02;;;;;;;;;34.50;29.00;;;;;7.42;100.00;102665.72;5038377;28;45411;-77
2022/01/11 02:49:28;;;;;;;;;34.75;32.75;;;;;7.44;100.00;102665.06;5038072;28;45356;-77
2022/01/11 02:51:54;;;;;;;;;32.25;31.00;;;;;7.43;100.00;102668.41;5038158;28;45323;-78
2022/01/11 02:54:20;;;;;;;;;35.25;29.25;;;;;7.44;100.00;102669.34;5037969;28;45350;-78
2022/01/11 02:56:46;;;;;;;;;32.50;25.50;;;;;7.41;100.00;102671.63;5038382;28;45443;-78
2022/01/11 02:59:12;;;;;;;;;32.75;28.25;;;;;7.34;100.00;102671.88;5037288;28;45962;-78
2022/01/11 03:01:37;;;;;;;;;38.00;27.50;;;;;7.26;100.00;102672.09;5038033;28;45404;-78
2022/01/11 03:04:03;;;;;;;;;37.00;29.75;;;;;7.22;100.00;102671.69;5040111;28;45244;-78
2022/01/11 03:06:29;;;;;;;;;37.50;30.25;;;;;7.18;100.00;102669.63;5038868;28;45573;-78
2022/01/11 03:08:54;;;;;;;;;33.25;29.25;;;;;7.19;100.00;102679.13;5037497;28;45886;-77
2022/01/11 03:11:21;;;;;;;;;43.25;29.00;;;;;7.20;100.00;102676.72;5038117;28;45399;-77
2022/01/11 03:13:48;;;;;;;;;34.00;29.50;;;;;7.22;100.00;102667.44;5037467;28;45245;-78
2022/01/11 03:16:16;;;;;;;;;31.00;28.75;;;;;7.20;100.00;102668.97;5037999;28;45621;-78
2022/01/11 03:18:42;;;;;;;;;34.75;28.50;;;;;7.21;100.00;102680.19;5037720;28;46072;-77
2022/01/11 03:21:08;;;;;;;;;37.00;30.00;;;;;7.22;100.00;102682.91;5037071;28;45371;-78
2022/01/11 03:23:34;;;;;;;;;30.50;28.25;;;;;7.22;100.00;102682.91;5037631;28;45339;-77
2022/01/11 03:26:03;;;;;;;;;27.50;23.50;;;;;7.23;100.00;102679.56;5037120;28;45410;-77
2022/01/11 03:28:30;;;;;;;;;31.00;25.00;;;;;7.25;100.00;102688.31;5037249;28;46059;-78
2022/01/11 03:30:56;;;;;;;;;27.25;22.75;;;;;7.26;100.00;102697.84;5026691;28;45968;-77
2022/01/11 03:33:22;;;;;;;;;30.00;27.25;;;;;7.31;100.00;102699.94;5035529;28;45292;-78
2022/01/11 03:35:49;;;;;;;;;33.25;27.75;;;;;7.32;100.00;102705.22;5020080;28;45345;-77
2022/01/11 03:38:16;;;;;;;;;30.25;27.25;;;;;7.35;100.00;102704.56;5037191;28;45989;-78
2022/01/11 03:40:42;;;;;;;;;32.00;26.75;;;;;7.33;100.00;102699.31;5037189;28;45871;-78
2022/01/11 03:43:09;;;;;;;;;31.00;25.50;;;;;7.36;100.00;102696.09;5037175;28;45399;-77
2022/01/11 03:45:35;;;;;;;;;38.50;31.00;;;;;7.35;100.00;102686.53;5036840;28;45685;-78
2022/01/11 03:48:03;;;;;;;;;16.50;10.25;;;;;7.36;100.00;102694.44;5036980;28;46205;-78
2022/01/11 03:50:30;;;;;;;;;17.00;13.50;;;;;7.33;100.00;102701.88;5037081;28;45379;-79
2022/01/11 03:53:08;;;;;;;;;29.00;23.50;;;;;7.32;100.00;102701.75;5037191;28;45268;-79
2022/01/11 03:58:21;;;;;;;;;29.75;26.75;;;;;7.30;100.00;102698.13;5036749;28;45256;-77
2022/01/11 04:00:47;;;;;;;;;27.50;26.75;;;;;7.29;100.00;102715.25;5037065;28;45911;-76
2022/01/11 04:03:12;;;;;;;;;31.75;24.00;;;;;7.27;100.00;102715.13;5019138;28;45503;-78
2022/01/11 04:05:41;;;;;;;;;29.25;24.50;;;;;7.25;100.00;102708.91;5037314;28;45351;-76
2022/01/11 04:08:06;;;;;;;;;28.50;25.25;;;;;7.25;100.00;102711.50;5036643;28;45450;-76
2022/01/11 04:10:32;;;;;;;;;33.25;27.00;;;;;7.26;100.00;102704.69;5036846;28;45224;-76
2022/01/11 04:12:57;;;;;;;;;30.00;27.25;;;;;7.23;100.00;102697.59;5036543;28;45395;-76
2022/01/11 04:15:23;;;;;;;;;29.50;28.25;;;;;7.22;100.00;102692.28;5037353;28;45461;-77
2022/01/11 04:17:49;;;;;;;;;34.75;30.50;;;;;7.22;100.00;102692.28;5036671;28;45386;-76
2022/01/11 04:20:14;;;;;;;;;26.75;24.50;;;;;7.22;100.00;102694.88;5036261;28;45426;-77
2022/01/11 04:22:41;;;;;;;;;23.25;16.75;;;;;7.23;100.00;102705.34;5036456;28;45486;-77
2022/01/11 04:25:07;;;;;;;;;28.50;22.75;;;;;7.23;100.00;102709.56;5037027;28;45334;-77
2022/01/11 04:27:33;;;;;;;;;29.75;27.00;;;;;7.22;100.00;102711.25;5036513;28;45440;-77
2022/01/11 04:29:58;;;;;;;;;24.25;24.25;;;;;7.20;100.00;102699.91;5037168;28;45429;-77
2022/01/11 04:32:24;;;;;;;;;27.00;25.50;;;;;7.20;100.00;102711.84;5037455;28;45325;-77
2022/01/11 04:34:50;;;;;;;;;21.75;16.75;;;;;7.14;100.00;102709.63;5036941;28;45568;-77
2022/01/11 04:37:15;;;;;;;;;25.25;22.75;;;;;7.15;100.00;102710.56;5035638;28;45213;-77
2022/01/11 04:39:41;;;;;;;;;24.75;24.75;;;;;7.11;100.00;102705.13;5036065;28;45295;-77
2022/01/11 04:42:07;;;;;;;;;27.25;23.00;;;;;7.11;100.00;102696.50;5036200;28;45181;-78
2022/01/11 04:44:33;;;;;;;;;23.25;21.75;;;;;7.11;100.00;102709.38;5036781;28;45528;-77
2022/01/11 04:46:58;;;;;;;;;20.25;18.75;;;;;7.11;100.00;102714.53;5036236;28;45849;-77
2022/01/11 04:49:24;;;;;;;;;29.00;25.25;;;;;7.09;100.00;102727.25;5036573;28;45251;-77
2022/01/11 04:51:49;;;;;;;;;29.50;23.25;;;;;7.05;100.00;102729.41;5036297;28;45322;-77
2022/01/11 04:54:15;;;;;;;;;27.00;24.25;;;;;7.05;100.00;102737.16;5036575;28;45261;-77
2022/01/11 04:56:41;;;;;;;;;27.00;22.50;;;;;7.02;100.00;102732.63;5036012;28;45437;-77
2022/01/11 04:59:07;;;;;;;;;26.50;23.75;;;;;6.96;100.00;102739.81;5036322;28;45411;-78
2022/01/11 05:01:33;;;;;;;;;28.00;25.50;;;;;6.88;100.00;102728.81;5037956;28;45379;-79
2022/01/11 05:03:59;;;;;;;;;29.00;22.25;;;;;6.87;100.00;102726.06;5037698;28;45342;-77
2022/01/11 05:06:24;;;;;;;;;31.00;24.50;;;;;6.82;100.00;102742.03;5035526;28;45263;-76
2022/01/11 05:08:50;;;;;;;;;31.75;26.50;;;;;6.85;100.00;102735.34;5035595;28;45220;-77
2022/01/11 05:11:16;;;;;;;;;33.00;29.75;;;;;6.86;100.00;102732.03;5036208;28;45237;-77
2022/01/11 05:13:42;;;;;;;;;26.75;24.25;;;;;6.89;100.00;102742.56;5031110;28;45343;-77
2022/01/11 05:16:09;;;;;;;;;30.00;22.75;;;;;6.91;100.00;102736.78;5015867;28;45898;-78
2022/01/11 05:18:36;;;;;;;;;29.75;23.75;;;;;6.91;100.00;102741.94;5015893;28;45399;-78
2022/01/11 05:21:03;;;;;;;;;33.25;29.75;;;;;6.92;100.00;102737.72;5016983;28;45320;-79
2022/01/11 05:23:29;;;;;;;;;22.50;22.00;;;;;6.90;100.00;102737.59;5016107;28;45325;-78
2022/01/11 05:25:54;;;;;;;;;30.50;25.75;;;;;6.81;100.00;102749.59;5016126;28;45237;-78
2022/01/11 05:28:20;;;;;;;;;34.50;27.00;;;;;6.73;100.00;102743.78;4997954;28;45339;-78
2022/01/11 05:30:46;;;;;;;;;37.25;29.00;;;;;6.64;100.00;102753.22;5014559;28;45389;-78
2022/01/11 05:33:11;;;;;;;;;20.75;19.25;;;;;6.57;100.00;102753.41;5015931;28;45363;-78
2022/01/11 05:35:37;;;;;;;;;32.00;27.50;;;;;6.51;100.00;102746.03;5035193;28;46412;-80
2022/01/11 05:38:03;;;;;;;;;35.25;29.75;;;;;6.48;100.00;102740.56;5035553;28;45276;-79
2022/01/11 05:40:29;;;;;;;;;35.50;28.25;;;;;6.45;100.00;102746.34;5035628;28;45407;-79
2022/01/11 05:42:55;;;;;;;;;33.25;26.25;;;;;6.38;100.00;102758.50;5035899;28;45540;-78
2022/01/11 05:45:20;;;;;;;;;38.00;30.00;;;;;6.32;100.00;102770.03;5034860;28;46085;-77
2022/01/11 05:47:52;;;;;;;;;30.00;26.50;;;;;6.36;100.00;102773.81;5035309;28;45358;-78
2022/01/11 05:50:19;;;;;;;;;31.00;29.00;;;;;6.42;100.00;102774.41;5037883;28;45343;-78
2022/01/11 05:52:45;;;;;;;;;29.25;23.75;;;;;6.46;100.00;102775.59;5039037;28;45419;-79
2022/01/11 05:55:12;;;;;;;;;29.00;26.25;;;;;6.52;100.00;102780.41;5038900;28;46092;-78
2022/01/11 05:57:38;;;;;;;;;35.75;30.50;;;;;6.56;100.00;102769.59;5040833;28;46002;-78
2022/01/11 06:00:07;;;;;;;;;41.50;36.25;;;;;6.57;100.00;102774.91;5038898;28;45331;-78
2022/01/11 06:02:32;;;;;;;;;35.50;30.75;;;;;6.53;100.00;102779.63;5036635;28;45498;-78
2022/01/11 06:04:58;;;;;;;;;37.25;32.25;;;;;6.53;100.00;102785.66;5018695;28;45587;-78
2022/01/11 06:07:24;;;;;;;;;38.75;30.00;;;;;6.51;100.00;102779.47;5024749;28;45175;-79
2022/01/11 06:09:49;;;;;;;;;28.25;25.25;;;;;6.54;100.00;102784.91;5037730;28;45651;-79
2022/01/11 06:12:15;;;;;;;;;40.00;32.75;;;;;6.56;100.00;102787.63;5036758;28;45476;-78
2022/01/11 06:14:40;;;;;;;;;33.50;29.00;;;;;6.56;100.00;102792.75;5027630;28;45467;-83
2022/01/11 06:17:06;;;;;;;;;28.75;25.00;;;;;6.56;100.00;102793.69;5018911;28;45517;-77
2022/01/11 06:19:32;;;;;;;;;28.00;26.00;;;;;6.57;100.00;102799.72;5022685;28;45331;-82
2022/01/11 06:21:58;;;;;;;;;35.75;29.25;;;;;6.57;100.00;102798.06;5030689;28;45496;-81
2022/01/11 06:24:24;;;;;;;;;37.25;29.00;;;;;6.60;100.00;102805.16;5020390;28;46459;-84
2022/01/11 06:26:49;;;;;;;;;39.00;30.25;;;;;6.63;100.00;102798.63;5032369;28;45617;-80
2022/01/11 06:29:15;;;;;;;;;23.00;21.00;;;;;6.69;100.00;102798.28;5036418;28;45475;-76
2022/01/11 06:31:41;;;;;;;;;35.00;28.50;;;;;6.72;100.00;102805.38;5029646;28;45392;-80
2022/01/11 06:34:06;;;;;;;;;35.25;28.25;;;;;6.76;100.00;102808.38;5028829;28;45748;-80
2022/01/11 06:36:32;;;;;;;;;28.75;23.25;;;;;6.77;100.00;102806.72;5027747;28;45314;-79
2022/01/11 06:38:57;;;;;;;;;33.00;28.25;;;;;6.75;100.00;102805.69;5027491;28;45338;-79
2022/01/11 06:41:23;;;;;;;;;39.50;32.50;;;;;6.74;100.00;102806.44;5028538;28;45507;-80
2022/01/11 06:43:50;;;;;;;;;43.75;36.00;;;;;6.76;100.00;102804.91;5026115;28;45921;-79
2022/01/11 06:46:16;;;;;;;;;33.75;28.00;;;;;6.74;100.00;102797.06;5028341;28;45841;-80
2022/01/11 06:48:41;;;;;;;;;30.50;30.00;;;;;6.72;100.00;102797.66;5036951;28;45466;-80
2022/01/11 06:51:07;;;;;;;;;36.00;30.25;;;;;6.70;100.00;102802.69;5038734;28;45574;-80
2022/01/11 06:53:33;;;;;;;;;34.75;28.50;;;;;6.64;100.00;102800.44;5039839;28;46070;-80
2022/01/11 06:55:59;;;;;;;;;30.50;27.00;;;;;6.64;100.00;102809.84;5041902;28;45465;-79
2022/01/11 06:58:24;;;;;;;;;39.00;32.50;;;;;6.61;100.00;102813.03;5037860;28;45476;-79
2022/01/11 07:00:50;;;;;;;;;32.00;26.50;;;;;6.59;100.00;102817.13;5018802;28;45182;-79
2022/01/11 07:03:16;;;;;;;;;38.75;30.50;;;;;6.54;100.00;102814.88;5037741;28;45397;-79
2022/01/11 07:05:43;;;;;;;;;35.00;32.25;;;;;6.52;100.00;102813.84;5018057;28;45256;-79
2022/01/11 07:08:09;;;;;;;;;38.75;28.75;;;;;6.45;100.00;102814.94;5017938;28;45268;-77
2022/01/11 07:10:35;;;;;;;;;26.00;26.00;;;;;6.43;100.00;102816.47;5021290;28;45484;-79
2022/01/11 07:13:02;;;;;;;;;30.25;27.50;;;;;6.40;100.00;102811.94;5046175;28;46035;-79
2022/01/11 07:15:28;;;;;;;;;40.00;36.75;;;;;6.36;100.00;102814.97;5037303;28;45509;-79
2022/01/11 07:17:54;;;;;;;;;40.00;32.50;;;;;6.32;100.00;102825.72;5037791;28;45385;-80
2022/01/11 07:20:20;;;;;;;;;44.00;33.75;;;;;6.29;100.00;102831.47;5037835;28;45509;-80
2022/01/11 07:22:46;;;;;;;;;37.25;33.50;;;;;6.29;100.00;102828.03;5036543;28;46312;-78
2022/01/11 07:25:12;;;;;;;;;34.25;29.75;;;;;6.28;100.00;102841.63;5039464;28;45425;-80
2022/01/11 07:27:37;;;;;;;;;38.25;33.25;;;;;6.24;100.00;102845.59;5036642;28;45359;-78
2022/01/11 07:30:05;;;;;;;;;35.50;29.75;;;;;6.24;100.00;102849.81;5037008;28;45546;-79
2022/01/11 07:32:33;;;;;;;;;42.25;34.75;;;;;6.17;100.00;102843.19;5036113;28;45617;-78
2022/01/11 07:35:03;;;;;;;;;31.75;30.25;;;;;6.16;100.00;102855.16;5036125;28;45916;-76
2022/01/11 07:37:29;;;;;;;;;35.50;33.50;;;;;6.13;100.00;102870.28;5040252;28;45367;-75
2022/01/11 07:39:54;;;;;;;;;41.25;29.50;;;;;6.11;100.00;102876.94;5037595;28;45371;-86
2022/01/11 07:42:20;;;;;;;;;38.50;33.50;;;;;6.16;100.00;102878.28;5036483;28;45925;-78
2022/01/11 07:44:48;;;;;;;;;43.00;34.25;;;;;6.18;100.00;102881.91;5032926;28;45721;-77
2022/01/11 07:47:13;;;;;;;;;40.25;34.50;;;;;6.17;100.00;102879.19;5035821;28;45398;-80
2022/01/11 07:49:39;;;;;;;;;42.00;33.75;;;;;6.14;100.00;102872.09;5036308;28;45948;-79
2022/01/11 07:52:05;;;;;;;;;38.75;34.00;;;;;6.09;100.00;102874.97;5035607;28;46157;-75
2022/01/11 07:54:30;;;;;;;;;42.00;36.25;;;;;5.99;100.00;102863.81;5020024;28;45406;-74
2022/01/11 07:56:56;;;;;;;;;42.50;36.00;;;;;5.91;100.00;102867.28;5024204;28;45492;-73
2022/01/11 07:59:22;;;;;;;;;44.00;33.25;;;;;5.92;100.00;102865.59;5042250;28;45507;-76
2022/01/11 08:01:48;;;;;;;;;50.75;38.75;;;;;5.92;100.00;102870.72;5029715;28;46492;-76
2022/01/11 08:04:14;;;;;;;;;37.00;31.25;;;;;5.94;100.00;102885.53;5035378;28;45380;-75
2022/01/11 08:06:39;;;;;;;;;43.50;36.75;;;;;5.95;100.00;102889.94;5035865;28;45403;-77
2022/01/11 08:09:07;;;;;;;;;37.25;33.00;;;;;5.97;100.00;102896.13;5031466;28;45552;-75
2022/01/11 08:11:33;;;;;;;;;48.25;37.50;;;;;5.98;100.00;102897.94;5033754;28;46378;-74
2022/01/11 08:13:59;;;;;;;;;40.50;36.25;;;;;6.01;100.00;102900.88;5033965;28;45646;-77
2022/01/11 08:16:24;;;;;;;;;39.75;34.50;;;;;6.04;100.00;102901.16;5034844;28;45383;-75
2022/01/11 08:18:50;;;;;;;;;49.50;38.50;;;;;6.10;100.00;102905.97;5035505;28;45426;-76
2022/01/11 08:21:16;;;;;;;;;37.25;34.00;;;;;6.16;100.00;102908.22;5034506;28;45315;-76
2022/01/11 08:23:41;;;;;;;;;43.50;32.00;;;;;6.21;100.00;102916.41;5015937;28;45522;-80
2022/01/11 08:26:07;;;;;;;;;50.75;36.25;;;;;6.26;100.00;102922.91;5035787;28;45531;-78
2022/01/11 08:28:33;;;;;;;;;40.00;34.00;;;;;6.28;100.00;102929.09;5039314;28;45522;-77
2022/01/11 08:31:00;;;;;;;;;45.25;38.00;;;;;6.25;100.00;102928.81;5034936;28;46050;-77
2022/01/11 08:33:26;;;;;;;;;41.50;36.25;;;;;6.27;100.00;102937.56;5033649;28;45528;-77
2022/01/11 08:35:52;;;;;;;;;43.75;37.50;;;;;6.27;100.00;102948.75;5033522;28;46829;-77
2022/01/11 08:38:18;;;;;;;;;43.00;35.50;;;;;6.28;100.00;102934.25;5034778;28;45566;-78
2022/01/11 08:40:44;;;;;;;;;46.25;37.00;;;;;6.30;100.00;102931.06;5034247;28;45378;-78
2022/01/11 08:43:10;;;;;;;;;40.25;32.50;;;;;6.30;100.00;102933.63;5034687;28;45412;-78
2022/01/11 08:45:37;;;;;;;;;42.00;34.50;;;;;6.32;100.00;102934.69;5035315;28;45529;-79
2022/01/11 08:48:03;;;;;;;;;47.50;35.50;;;;;6.31;100.00;102931.97;5035717;28;45478;-77
2022/01/11 08:50:30;;;;;;;;;50.00;39.25;;;;;6.30;100.00;102933.63;5019322;28;47893;-74
2022/01/11 08:52:55;;;;;;;;;51.00;37.75;;;;;6.27;100.00;102937.56;5031728;28;45632;-77
2022/01/11 08:55:21;;;;;;;;;54.25;42.00;;;;;6.23;100.00;102935.44;5033959;28;45560;-78
2022/01/11 08:57:46;;;;;;;;;36.00;32.00;;;;;6.17;100.00;102930.63;5035365;28;45475;-80
2022/01/11 09:00:18;;;;;;;;;44.25;35.25;;;;;6.14;100.00;102931.25;5033427;28;45979;-77
2022/01/11 09:02:50;;;;;;;;;45.50;39.00;;;;;6.08;100.00;102927.16;5034636;28;45949;-79
2022/01/11 09:05:17;;;;;;;;;49.50;34.50;;;;;6.02;100.00;102923.25;5017829;28;45717;-79
2022/01/11 09:07:43;;;;;;;;;44.75;35.00;;;;;5.98;100.00;102928.81;5035587;28;45549;-80
2022/01/11 09:10:10;;;;;;;;;50.50;40.00;;;;;5.98;100.00;102933.94;5034287;28;45974;-75
2022/01/11 09:12:36;;;;;;;;;51.25;42.25;;;;;5.98;100.00;102936.53;5019805;28;45369;-75
2022/01/11 09:15:07;;;;;;;;;47.25;38.75;;;;;6.00;100.00;102932.47;5037363;28;45406;-75
2022/01/11 09:17:34;;;;;;;;;46.75;36.75;;;;;5.99;100.00;102938.38;5038280;28;45252;-75
2022/01/11 09:19:59;;;;;;;;;46.00;39.00;;;;;6.04;100.00;102936.25;5040291;28;46180;-74
2022/01/11 09:22:26;;;;;;;;;54.75;41.75;;;;;6.11;100.00;102943.78;5028852;28;45566;-74
2022/01/11 09:24:52;;;;;;;;;48.25;39.75;;;;;6.16;100.00;102929.72;5020066;28;45431;-75
2022/01/11 09:27:17;;;;;;;;;54.00;42.00;;;;;6.24;100.00;102942.41;5039227;28;45584;-75
2022/01/11 09:29:44;;;;;;;;;50.50;40.25;;;;;6.23;100.00;102948.31;5037696;28;45507;-75
2022/01/11 09:32:11;;;;;;;;;57.50;40.75;;;;;6.23;100.00;102946.66;5027152;28;45506;-74
2022/01/11 09:34:39;;;;;;;;;44.50;39.25;;;;;6.23;100.00;102941.53;5031747;28;45297;-77
2022/01/11 09:37:05;;;;;;;;;60.25;42.00;;;;;6.16;100.00;102955.44;5027359;28;45727;-76
2022/01/11 09:39:31;;;;;;;;;44.25;38.75;;;;;6.02;100.00;102954.09;5037590;28;46002;-79
2022/01/11 09:41:59;;;;;;;;;52.00;39.00;;;;;5.94;100.00;102970.38;5036335;28;45574;-81
2022/01/11 09:44:26;;;;;;;;;40.50;37.00;;;;;5.91;100.00;102954.69;5018009;28;45689;-85
2022/01/11 09:46:53;;;;;;;;;51.00;42.00;;;;;5.95;100.00;102968.75;5020686;28;45553;-77
2022/01/11 09:49:19;;;;;;;;;56.25;41.50;;;;;5.99;100.00;102963.16;5031171;28;46097;-77
2022/01/11 09:51:44;;;;;;;;;53.50;38.75;;;;;6.01;100.00;102961.66;5034996;28;46047;-77
2022/01/11 09:54:12;;;;;;;;;58.75;43.75;;;;;6.03;100.00;102962.72;5037657;28;45478;-77
2022/01/11 09:56:39;;;;;;;;;51.25;42.25;;;;;6.08;100.00;102968.31;5036788;28;45461;-78
2022/01/11 09:59:06;;;;;;;;;54.50;39.50;;;;;6.13;100.00;102973.16;5037306;28;46271;-79
2022/01/11 10:01:32;;;;;;;;;60.25;43.75;;;;;6.14;100.00;102972.38;5037934;28;45432;-79
2022/01/11 10:04:08;;;;;;;;;65.50;46.00;;;;;6.14;100.00;102972.38;5037097;28;45614;-80
2022/01/11 10:06:37;;;;;;;;;54.00;41.50;;;;;6.14;100.00;102972.38;5038280;28;45770;-80
2022/01/11 10:09:10;;;;;;;;;44.50;36.50;;;;;6.15;100.00;102969.06;5036942;28;45484;-79
2022/01/11 10:11:41;;;;;;;;;46.75;37.75;;;;;6.17;100.00;102974.34;5037068;28;45488;-78
2022/01/11 10:14:27;;;;;;;;;51.25;39.75;;;;;6.19;100.00;102976.34;5037391;28;45388;-79
2022/01/11 10:17:18;;;;;;;;;50.75;40.75;;;;;6.22;100.00;102983.44;5036025;28;45504;-79
2022/01/11 10:20:05;;;;;;;;;60.00;43.00;;;;;6.25;100.00;102985.38;5050582;28;46814;-80
2022/01/11 10:22:32;;;;;;;;;53.75;40.50;;;;;6.31;100.00;102988.56;5037028;28;45397;-80
2022/01/11 10:25:00;;;;;;;;;59.00;44.50;;;;;6.33;100.00;102994.75;5038260;28;45347;-81
2022/01/11 10:27:33;;;;;;;;;59.00;44.25;;;;;6.35;100.00;102998.38;5038477;28;45457;-81
2022/01/11 10:30:05;;;;;;;;;53.75;39.75;;;;;6.35;100.00;102995.81;5037838;28;45395;-79
2022/01/11 10:32:38;;;;;;;;;59.50;46.75;;;;;6.37;100.00;102996.88;5038268;28;45269;-78
2022/01/11 10:35:06;;;;;;;;;62.50;43.75;;;;;6.38;100.00;102996.13;5037749;28;45377;-79
2022/01/11 10:37:41;;;;;;;;;56.50;40.25;;;;;6.32;100.00;103003.22;5037982;28;45287;-77
2022/01/11 10:40:10;;;;;;;;;61.00;42.00;;;;;6.30;100.00;103004.78;5037773;28;45915;-79
2022/01/11 10:42:41;;;;;;;;;55.75;44.25;;;;;6.31;100.00;102998.88;5037830;28;45944;-78
2022/01/11 10:45:11;;;;;;;;;50.00;42.25;;;;;6.31;100.00;102999.75;5036965;28;45475;-78
2022/01/11 10:47:41;;;;;;;;;56.75;42.75;;;;;6.33;100.00;103000.81;5038193;28;45346;-78
2022/01/11 10:50:14;;;;;;;;;53.00;42.00;;;;;6.37;100.00;103001.13;5037594;28;46167;-78
2022/01/11 10:52:42;;;;;;;;;59.75;43.25;;;;;6.41;100.00;102999.00;5037785;28;45339;-78
2022/01/11 10:55:16;;;;;;;;;54.25;43.00;;;;;6.44;100.00;103001.84;5037592;28;45326;-79
2022/01/11 10:57:44;;;;;;;;;58.50;42.00;;;;;6.45;100.00;103003.66;5036623;28;45524;-79
2022/01/11 11:00:27;;;;;;;;;63.25;51.50;;;;;6.49;100.00;102998.06;5036170;28;45460;-80
2022/01/11 11:02:57;;;;;;;;;72.50;54.00;;;;;6.50;100.00;102988.66;5035315;28;45832;-83
2022/01/11 11:05:29;;;;;;;;;61.75;48.00;;;;;6.45;100.00;102995.94;5036074;28;45352;-80
2022/01/11 11:08:20;;;;;;;;;64.50;46.75;;;;;6.38;100.00;103001.28;5036539;28;45542;-78
2022/01/11 11:10:50;;;;;;;;;60.25;46.75;;;;;6.37;100.00;103007.16;5027222;28;45355;-87
2022/01/11 11:13:20;;;;;;;;;45.25;36.00;;;;;6.30;100.00;103002.19;5035795;28;45504;-78
2022/01/11 11:15:47;;;;;;;;;57.00;42.50;;;;;6.28;100.00;103003.69;5028992;28;45951;-77